Time;durP1;ratioP1;P1;durP2;ratioP2;P2;SDS_P1;SDS_P2;PMS_P1;PMS_P2;Temp;Humidity;BMP_temperature;BMP_pressure;BME280_temperature;BME280_humidity;BME280_pressure;Samples;Min_cycle;Max_cycle;Signal;HPM_P1;HPM_P2
2022/07/14 00:02:14;;;;;;;;;;;26.50;53.20;;;;;;5071065;28;19913;-50
2022/07/14 00:04:39;;;;;;;;;;;26.40;53.60;;;;;;5070736;28;20315;-53
2022/07/14 00:07:05;;;;;;;;;;;26.40;52.20;;;;;;5071132;28;19948;-54
2022/07/14 00:09:31;;;;;;;;;;;26.50;53.10;;;;;;5070695;28;19920;-55
2022/07/14 00:11:57;;;;;;;;;;;26.40;52.90;;;;;;5070684;28;19912;-53
2022/07/14 00:14:22;;;;;;;;;;;26.40;53.40;;;;;;5070298;28;19908;-49
2022/07/14 00:16:48;;;;;;;;;;;26.40;52.70;;;;;;5069235;28;19916;-52
2022/07/14 00:19:13;;;;;;;;;;;26.40;53.40;;;;;;5069488;28;19915;-53
2022/07/14 00:21:39;;;;;;;;;;;26.40;53.40;;;;;;5070339;28;19908;-53
2022/07/14 00:24:04;;;;;;;;;;;26.40;53.40;;;;;;5074489;28;19961;-49
2022/07/14 00:26:30;;;;;;;;;;;26.30;54.50;;;;;;5056689;28;19908;-53
2022/07/14 00:28:55;;;;;;;;;;;26.20;53.10;;;;;;5074512;28;19923;-53
2022/07/14 00:31:21;;;;;;;;;;;26.30;53.70;;;;;;5074612;28;20373;-53
2022/07/14 00:33:46;;;;;;;;;;;26.20;53.60;;;;;;5075065;28;19908;-53
2022/07/14 00:36:12;;;;;;;;;;;26.20;54.70;;;;;;5074276;28;19919;-51
2022/07/14 00:38:40;;;;;;;;;;;26.20;54.80;;;;;;5074269;28;19955;-52
2022/07/14 00:41:05;;;;;;;;;;;26.10;55.40;;;;;;5074752;28;19908;-52
2022/07/14 00:43:31;;;;;;;;;;;26.10;55.50;;;;;;5074312;28;20285;-54
2022/07/14 00:45:56;;;;;;;;;;;26.00;55.10;;;;;;5074320;28;20437;-54
2022/07/14 00:48:26;;;;;;;;;;;26.00;55.10;;;;;;5074389;28;19921;-53
2022/07/14 00:50:51;;;;;;;;;;;26.00;55.50;;;;;;5072971;28;20015;-59
2022/07/14 00:53:17;;;;;;;;;;;25.90;55.80;;;;;;5073496;28;19940;-56
2022/07/14 00:55:43;;;;;;;;;;;25.90;55.40;;;;;;5074088;28;20373;-58
2022/07/14 00:58:09;;;;;;;;;;;25.90;55.40;;;;;;5073180;28;19916;-58
2022/07/14 01:00:35;;;;;;;;;;;25.90;54.80;;;;;;5067255;28;19908;-58
2022/07/14 01:03:00;;;;;;;;;;;25.90;55.40;;;;;;5074005;28;19913;-58
2022/07/14 01:05:26;;;;;;;;;;;25.80;55.80;;;;;;5073776;28;19912;-54
2022/07/14 01:07:51;;;;;;;;;;;25.80;55.30;;;;;;5072398;28;19952;-58
2022/07/14 01:10:17;;;;;;;;;;;25.80;55.10;;;;;;5073430;28;20369;-58
2022/07/14 01:12:46;;;;;;;;;;;25.80;55.70;;;;;;5073458;28;19909;-58
2022/07/14 01:15:13;;;;;;;;;;;25.80;54.40;;;;;;5073541;28;19991;-58
2022/07/14 01:17:39;;;;;;;;;;;25.80;55.10;;;;;;5073930;28;19912;-58
2022/07/14 01:20:05;;;;;;;;;;;25.70;54.60;;;;;;5073637;28;19953;-57
2022/07/14 01:22:30;;;;;;;;;;;25.70;55.40;;;;;;5073715;28;19917;-57
2022/07/14 01:24:56;;;;;;;;;;;25.70;55.80;;;;;;5072747;28;20361;-58
2022/07/14 01:27:21;;;;;;;;;;;25.70;55.90;;;;;;5073290;28;20504;-57
2022/07/14 01:29:47;;;;;;;;;;;25.60;55.90;;;;;;5073760;28;20003;-57
2022/07/14 01:32:12;;;;;;;;;;;25.60;56.20;;;;;;5073522;28;19913;-58
2022/07/14 01:34:38;;;;;;;;;;;25.50;55.90;;;;;;5073548;28;19912;-56
2022/07/14 01:37:03;;;;;;;;;;;25.50;55.70;;;;;;5067588;28;19915;-58
2022/07/14 01:39:29;;;;;;;;;;;25.40;56.20;;;;;;5066602;28;19909;-57
2022/07/14 01:41:54;;;;;;;;;;;25.40;56.20;;;;;;5073464;28;20327;-57
2022/07/14 01:44:20;;;;;;;;;;;25.30;56.30;;;;;;5073255;28;19962;-57
2022/07/14 01:46:45;;;;;;;;;;;25.30;56.10;;;;;;5073262;28;20007;-58
2022/07/14 01:49:12;;;;;;;;;;;25.30;56.60;;;;;;5071177;28;19967;-57
2022/07/14 01:51:37;;;;;;;;;;;25.30;56.40;;;;;;5073065;28;19928;-58
2022/07/14 01:54:04;;;;;;;;;;;25.20;56.40;;;;;;5073011;28;19913;-58
2022/07/14 01:56:30;;;;;;;;;;;25.20;57.20;;;;;;5072819;28;19908;-57
2022/07/14 01:58:55;;;;;;;;;;;25.20;57.00;;;;;;5054952;28;19995;-58
2022/07/14 02:01:40;;;;;;;;;;;25.20;56.90;;;;;;5054639;28;19954;-56
2022/07/14 02:04:06;;;;;;;;;;;25.10;56.60;;;;;;5072874;28;19916;-57
2022/07/14 02:06:32;;;;;;;;;;;25.00;57.00;;;;;;5054673;28;19909;-58
2022/07/14 02:08:58;;;;;;;;;;;24.90;56.80;;;;;;5072782;28;19927;-59
2022/07/14 02:14:07;;;;;;;;;;;24.90;56.80;;;;;;5073402;28;19919;-58
2022/07/14 02:16:33;;;;;;;;;;;24.80;57.20;;;;;;5065520;28;19917;-59
2022/07/14 02:18:59;;;;;;;;;;;24.80;57.10;;;;;;5072908;28;19912;-58
2022/07/14 02:21:24;;;;;;;;;;;24.70;57.20;;;;;;5070066;28;19992;-57
2022/07/14 02:23:51;;;;;;;;;;;24.70;57.10;;;;;;5072467;28;19940;-58
2022/07/14 02:26:17;;;;;;;;;;;24.70;57.10;;;;;;5054289;28;19908;-57
2022/07/14 02:28:42;;;;;;;;;;;24.70;57.00;;;;;;5072683;28;19978;-58
2022/07/14 02:31:09;;;;;;;;;;;24.70;57.20;;;;;;5072681;28;19917;-59
2022/07/14 02:33:34;;;;;;;;;;;24.60;57.10;;;;;;5072615;28;19962;-57
2022/07/14 02:36:00;;;;;;;;;;;24.60;57.10;;;;;;5069410;28;19909;-58
2022/07/14 02:38:26;;;;;;;;;;;24.60;57.20;;;;;;5070195;28;20369;-58
2022/07/14 02:40:51;;;;;;;;;;;24.60;57.10;;;;;;5071496;28;20254;-58
2022/07/14 02:43:16;;;;;;;;;;;24.60;57.30;;;;;;5072094;28;19954;-58
2022/07/14 02:45:42;;;;;;;;;;;24.50;57.20;;;;;;5072129;28;19909;-57
2022/07/14 02:48:08;;;;;;;;;;;24.50;57.50;;;;;;5053942;28;19920;-58
2022/07/14 02:50:36;;;;;;;;;;;24.50;57.40;;;;;;5072491;28;19919;-58
2022/07/14 02:53:02;;;;;;;;;;;24.40;58.10;;;;;;5071852;28;19987;-58
2022/07/14 02:55:27;;;;;;;;;;;24.40;58.40;;;;;;5069073;28;19908;-57
2022/07/14 02:57:53;;;;;;;;;;;24.30;58.70;;;;;;5067909;28;19908;-57
2022/07/14 03:00:18;;;;;;;;;;;24.30;58.40;;;;;;5071612;28;20289;-58
2022/07/14 03:02:44;;;;;;;;;;;24.30;58.70;;;;;;5071965;28;19938;-58
2022/07/14 03:05:09;;;;;;;;;;;24.20;58.90;;;;;;5071785;28;19912;-57
2022/07/14 03:07:35;;;;;;;;;;;24.20;58.90;;;;;;5071615;28;20292;-57
2022/07/14 03:10:00;;;;;;;;;;;24.20;58.90;;;;;;5071585;28;19908;-58
2022/07/14 03:12:26;;;;;;;;;;;24.20;59.30;;;;;;5071936;28;19908;-58
2022/07/14 03:14:51;;;;;;;;;;;24.10;59.70;;;;;;5071886;28;19915;-58
2022/07/14 03:17:17;;;;;;;;;;;24.10;60.10;;;;;;5070974;28;20397;-58
2022/07/14 03:19:43;;;;;;;;;;;24.10;60.00;;;;;;5071388;28;19908;-55
2022/07/14 03:22:08;;;;;;;;;;;24.10;60.30;;;;;;5071069;28;19919;-58
2022/07/14 03:24:34;;;;;;;;;;;24.00;60.70;;;;;;5071409;28;19915;-57
2022/07/14 03:27:00;;;;;;;;;;;23.90;61.20;;;;;;5072105;28;20299;-57
2022/07/14 03:29:27;;;;;;;;;;;23.90;60.80;;;;;;5069608;28;19920;-58
2022/07/14 03:31:53;;;;;;;;;;;23.90;61.40;;;;;;5071261;28;19914;-58
2022/07/14 03:34:18;;;;;;;;;;;23.90;61.40;;;;;;5071375;28;19912;-57
2022/07/14 03:36:44;;;;;;;;;;;23.90;61.90;;;;;;5071163;28;19908;-58
2022/07/14 03:39:10;;;;;;;;;;;23.80;61.80;;;;;;5064843;28;19966;-58
2022/07/14 03:41:35;;;;;;;;;;;23.80;62.30;;;;;;5071141;28;19958;-59
2022/07/14 03:44:01;;;;;;;;;;;23.80;62.70;;;;;;5071230;28;20003;-53
2022/07/14 03:46:26;;;;;;;;;;;23.60;62.70;;;;;;5071028;28;19913;-58
2022/07/14 03:48:52;;;;;;;;;;;23.60;62.70;;;;;;5069187;28;19928;-58
2022/07/14 03:51:17;;;;;;;;;;;23.60;62.30;;;;;;5066070;28;19999;-58
2022/07/14 03:53:43;;;;;;;;;;;23.60;62.40;;;;;;5070721;28;19916;-58
2022/07/14 03:56:08;;;;;;;;;;;23.60;62.60;;;;;;5068552;28;19940;-58
2022/07/14 03:58:34;;;;;;;;;;;23.60;62.80;;;;;;5070805;28;20587;-58
2022/07/14 04:00:59;;;;;;;;;;;23.50;63.00;;;;;;5070913;28;19909;-57
2022/07/14 04:03:25;;;;;;;;;;;23.60;62.90;;;;;;5039656;28;19909;-58
2022/07/14 04:05:51;;;;;;;;;;;23.50;62.70;;;;;;5070891;28;19916;-58
2022/07/14 04:08:16;;;;;;;;;;;23.50;62.70;;;;;;5036074;28;20404;-57
2022/07/14 04:10:42;;;;;;;;;;;23.50;64.00;;;;;;5070649;28;19991;-57
2022/07/14 04:13:07;;;;;;;;;;;23.40;63.40;;;;;;5070706;28;19940;-58
2022/07/14 04:15:33;;;;;;;;;;;23.40;63.80;;;;;;5065527;28;20293;-58
2022/07/14 04:17:58;;;;;;;;;;;23.40;64.60;;;;;;5069381;28;19913;-58
2022/07/14 04:20:24;;;;;;;;;;;23.30;64.90;;;;;;5070423;28;19999;-57
2022/07/14 04:22:50;;;;;;;;;;;23.30;64.60;;;;;;5070845;28;19962;-57
2022/07/14 04:25:16;;;;;;;;;;;23.30;64.80;;;;;;5070958;28;19909;-58
2022/07/14 04:27:42;;;;;;;;;;;23.30;64.90;;;;;;5070520;28;19920;-58
2022/07/14 04:30:09;;;;;;;;;;;23.30;64.50;;;;;;5070785;28;19916;-58
2022/07/14 04:32:34;;;;;;;;;;;23.20;66.00;;;;;;5070402;28;20048;-58
2022/07/14 04:35:00;;;;;;;;;;;23.20;65.50;;;;;;5070262;28;19908;-58
2022/07/14 04:37:26;;;;;;;;;;;23.20;65.00;;;;;;5070762;28;19959;-59
2022/07/14 04:39:53;;;;;;;;;;;23.20;64.70;;;;;;5071023;28;19946;-59
2022/07/14 04:42:18;;;;;;;;;;;23.20;64.90;;;;;;5070557;28;19942;-58
2022/07/14 04:44:44;;;;;;;;;;;23.20;65.50;;;;;;5070456;28;19908;-58
2022/07/14 04:47:09;;;;;;;;;;;23.20;65.40;;;;;;5070822;28;19909;-58
2022/07/14 04:52:19;;;;;;;;;;;23.20;65.80;;;;;;5070352;28;19967;-59
2022/07/14 04:54:45;;;;;;;;;;;23.20;66.10;;;;;;5063680;28;19948;-57
2022/07/14 04:57:11;;;;;;;;;;;23.20;65.90;;;;;;5070045;28;19917;-58
2022/07/14 04:59:37;;;;;;;;;;;23.30;66.90;;;;;;5070496;28;19916;-55
2022/07/14 05:02:02;;;;;;;;;;;23.20;67.60;;;;;;5070676;28;20273;-58
2022/07/14 05:04:28;;;;;;;;;;;23.20;66.90;;;;;;5069870;28;19916;-58
2022/07/14 05:06:55;;;;;;;;;;;23.20;67.00;;;;;;5070509;28;19947;-58
2022/07/14 05:09:21;;;;;;;;;;;23.20;67.30;;;;;;5073973;28;19923;-58
2022/07/14 05:11:47;;;;;;;;;;;23.10;67.90;;;;;;5074154;28;19908;-58
2022/07/14 05:14:12;;;;;;;;;;;23.10;66.70;;;;;;5073650;28;19969;-58
2022/07/14 05:16:38;;;;;;;;;;;23.10;66.90;;;;;;5073477;28;19909;-58
2022/07/14 05:19:04;;;;;;;;;;;23.10;67.70;;;;;;5073614;28;19916;-59
2022/07/14 05:21:30;;;;;;;;;;;23.20;67.90;;;;;;5073563;28;19945;-58
2022/07/14 05:23:56;;;;;;;;;;;23.20;67.50;;;;;;5073920;28;19912;-59
2022/07/14 05:26:22;;;;;;;;;;;23.20;67.80;;;;;;5073119;28;19916;-58
2022/07/14 05:28:47;;;;;;;;;;;23.20;68.60;;;;;;5073146;28;19955;-58
2022/07/14 05:31:13;;;;;;;;;;;23.20;68.60;;;;;;5073053;28;19951;-58
2022/07/14 05:33:39;;;;;;;;;;;23.20;67.90;;;;;;5073171;28;20361;-58
2022/07/14 05:36:05;;;;;;;;;;;23.20;68.40;;;;;;5054565;28;20365;-58
2022/07/14 05:38:33;;;;;;;;;;;23.20;68.50;;;;;;5072968;28;19936;-57
2022/07/14 05:41:02;;;;;;;;;;;23.20;68.10;;;;;;5072952;28;19959;-58
2022/07/14 05:43:29;;;;;;;;;;;23.30;68.30;;;;;;5071350;28;20388;-58
2022/07/14 05:45:54;;;;;;;;;;;23.20;68.00;;;;;;5073169;28;20376;-58
2022/07/14 05:48:20;;;;;;;;;;;23.20;69.00;;;;;;5072184;28;19926;-57
2022/07/14 05:50:45;;;;;;;;;;;23.20;68.60;;;;;;5072469;28;20377;-59
2022/07/14 05:53:11;;;;;;;;;;;23.20;69.00;;;;;;5072485;28;20442;-58
2022/07/14 05:55:36;;;;;;;;;;;23.20;68.20;;;;;;5072869;28;20365;-58
2022/07/14 05:58:02;;;;;;;;;;;23.30;68.40;;;;;;5073166;28;20003;-58
2022/07/14 06:00:27;;;;;;;;;;;23.20;69.00;;;;;;5072469;28;19927;-57
2022/07/14 06:02:53;;;;;;;;;;;23.30;69.30;;;;;;5072288;28;19969;-58
2022/07/14 06:05:18;;;;;;;;;;;23.30;69.70;;;;;;5072297;28;19912;-58
2022/07/14 06:07:44;;;;;;;;;;;23.40;69.70;;;;;;5072949;28;20444;-57
2022/07/14 06:10:11;;;;;;;;;;;23.40;69.90;;;;;;5072128;28;19912;-57
2022/07/14 06:12:40;;;;;;;;;;;23.30;70.00;;;;;;5065513;28;19959;-59
2022/07/14 06:15:07;;;;;;;;;;;23.40;69.90;;;;;;5072084;28;20011;-57
2022/07/14 06:17:33;;;;;;;;;;;23.50;69.90;;;;;;5070958;28;19912;-59
2022/07/14 06:20:06;;;;;;;;;;;23.50;69.50;;;;;;5070075;28;19923;-58
2022/07/14 06:22:32;;;;;;;;;;;23.50;70.20;;;;;;5071733;28;19909;-53
2022/07/14 06:24:58;;;;;;;;;;;23.50;69.80;;;;;;5072396;28;20050;-58
2022/07/14 06:27:23;;;;;;;;;;;23.50;70.00;;;;;;5040873;28;20003;-58
2022/07/14 06:29:49;;;;;;;;;;;23.40;70.20;;;;;;5072354;28;19912;-62
2022/07/14 06:32:15;;;;;;;;;;;23.40;70.30;;;;;;5071386;28;20274;-58
2022/07/14 06:34:40;;;;;;;;;;;23.50;70.40;;;;;;5072101;28;19916;-53
2022/07/14 06:37:06;;;;;;;;;;;23.50;70.30;;;;;;5042650;28;20014;-56
2022/07/14 06:39:33;;;;;;;;;;;23.60;70.50;;;;;;5072131;28;19919;-68
2022/07/14 06:41:59;;;;;;;;;;;23.60;70.60;;;;;;5078758;28;20360;-71
2022/07/14 06:44:24;;;;;;;;;;;23.60;70.20;;;;;;5075618;28;19912;-69
2022/07/14 06:46:50;;;;;;;;;;;23.60;70.40;;;;;;5074538;28;20004;-70
2022/07/14 06:49:15;;;;;;;;;;;23.60;70.70;;;;;;5070797;28;20011;-70
2022/07/14 06:51:41;;;;;;;;;;;23.60;70.80;;;;;;5071849;28;20392;-70
2022/07/14 06:54:07;;;;;;;;;;;23.50;70.60;;;;;;5072118;28;19912;-70
2022/07/14 06:56:32;;;;;;;;;;;23.50;70.70;;;;;;5068691;28;19915;-71
2022/07/14 06:58:58;;;;;;;;;;;23.60;70.80;;;;;;5069515;28;19912;-69
2022/07/14 07:01:23;;;;;;;;;;;23.60;70.90;;;;;;5068264;28;19913;-70
2022/07/14 07:03:49;;;;;;;;;;;23.60;71.20;;;;;;5071274;28;19909;-70
2022/07/14 07:08:59;;;;;;;;;;;23.70;70.30;;;;;;5069344;28;19977;-67
2022/07/14 07:11:24;;;;;;;;;;;23.80;70.80;;;;;;5069668;28;19916;-68
2022/07/14 07:13:50;;;;;;;;;;;23.80;70.50;;;;;;5043032;28;20385;-68
2022/07/14 07:16:15;;;;;;;;;;;23.90;70.70;;;;;;5068641;28;19913;-69
2022/07/14 07:18:41;;;;;;;;;;;23.90;70.50;;;;;;5068897;28;19916;-70
2022/07/14 07:21:06;;;;;;;;;;;23.80;70.60;;;;;;5069577;28;19916;-71
2022/07/14 07:23:32;;;;;;;;;;;23.80;70.70;;;;;;5069682;28;20019;-67
2022/07/14 07:25:58;;;;;;;;;;;23.80;70.80;;;;;;5068443;28;19916;-68
2022/07/14 07:28:23;;;;;;;;;;;23.80;71.10;;;;;;5050818;28;19977;-68
2022/07/14 07:30:49;;;;;;;;;;;23.90;70.80;;;;;;5068881;28;19938;-67
2022/07/14 07:33:14;;;;;;;;;;;23.90;70.80;;;;;;5068457;28;19918;-68
2022/07/14 07:35:42;;;;;;;;;;;24.00;70.70;;;;;;5069250;28;19955;-66
2022/07/14 07:38:08;;;;;;;;;;;24.10;70.50;;;;;;5046479;28;20412;-68
2022/07/14 07:40:34;;;;;;;;;;;24.20;70.20;;;;;;5043583;28;19960;-70
2022/07/14 07:42:59;;;;;;;;;;;24.20;70.00;;;;;;5068270;28;20292;-68
2022/07/14 07:45:25;;;;;;;;;;;24.20;69.80;;;;;;5068342;28;19924;-69
2022/07/14 07:47:51;;;;;;;;;;;24.30;69.80;;;;;;5068423;28;19916;-68
2022/07/14 07:50:16;;;;;;;;;;;24.30;69.70;;;;;;5068914;28;20062;-70
2022/07/14 07:52:42;;;;;;;;;;;24.30;69.80;;;;;;5072618;28;20076;-70
2022/07/14 07:55:09;;;;;;;;;;;24.30;69.60;;;;;;5068027;28;19917;-68
2022/07/14 07:57:35;;;;;;;;;;;24.30;69.60;;;;;;5067088;28;19923;-69
2022/07/14 08:00:00;;;;;;;;;;;24.40;69.60;;;;;;5070086;28;19927;-71
2022/07/14 08:02:26;;;;;;;;;;;24.50;69.20;;;;;;5068603;28;19995;-70
2022/07/14 08:04:52;;;;;;;;;;;24.40;69.20;;;;;;5068005;28;19935;-71
2022/07/14 08:07:18;;;;;;;;;;;24.40;69.40;;;;;;5068782;28;20666;-70
2022/07/14 08:09:44;;;;;;;;;;;24.50;70.20;;;;;;5069959;28;19921;-70
2022/07/14 08:12:09;;;;;;;;;;;24.50;69.30;;;;;;5068384;28;19913;-70
2022/07/14 08:14:50;;;;;;;;;;;24.60;69.20;;;;;;5068400;28;20010;-68
2022/07/14 08:17:16;;;;;;;;;;;24.60;68.70;;;;;;5068469;28;19919;-69
2022/07/14 08:19:42;;;;;;;;;;;24.60;68.80;;;;;;5070564;28;19919;-68
2022/07/14 08:22:07;;;;;;;;;;;24.60;68.80;;;;;;5068774;28;19916;-69
2022/07/14 08:24:33;;;;;;;;;;;24.70;68.70;;;;;;5068296;28;20339;-67
2022/07/14 08:26:58;;;;;;;;;;;24.70;68.40;;;;;;5068740;28;20012;-68
2022/07/14 08:29:24;;;;;;;;;;;24.70;68.30;;;;;;5069020;28;19927;-69
2022/07/14 08:31:49;;;;;;;;;;;24.80;67.70;;;;;;5067757;28;19916;-67
2022/07/14 08:34:15;;;;;;;;;;;24.80;67.80;;;;;;5069373;28;19920;-69
2022/07/14 08:36:40;;;;;;;;;;;24.70;68.00;;;;;;5068589;28;20365;-70
2022/07/14 08:39:06;;;;;;;;;;;24.80;68.00;;;;;;5068048;28;19978;-70
2022/07/14 08:41:33;;;;;;;;;;;24.80;67.80;;;;;;5071677;28;20757;-71
2022/07/14 08:43:59;;;;;;;;;;;24.80;67.70;;;;;;5071962;28;19912;-69
2022/07/14 08:46:25;;;;;;;;;;;24.80;67.70;;;;;;5072782;28;19992;-68
2022/07/14 08:48:51;;;;;;;;;;;24.80;67.40;;;;;;5072159;28;20312;-69
2022/07/14 08:51:17;;;;;;;;;;;24.80;67.60;;;;;;5070507;28;19923;-69
2022/07/14 08:53:43;;;;;;;;;;;24.90;67.40;;;;;;5071624;28;20308;-69
2022/07/14 08:56:09;;;;;;;;;;;24.90;67.10;;;;;;5071510;28;20019;-69
2022/07/14 08:58:34;;;;;;;;;;;24.90;66.50;;;;;;5071968;28;20258;-68
2022/07/14 09:01:00;;;;;;;;;;;24.90;66.40;;;;;;5073251;28;19916;-69
2022/07/14 09:03:25;;;;;;;;;;;24.90;66.60;;;;;;5071978;28;19916;-68
2022/07/14 09:05:53;;;;;;;;;;;24.90;66.20;;;;;;5071888;28;19917;-69
2022/07/14 09:08:18;;;;;;;;;;;24.90;66.40;;;;;;5072031;28;19963;-67
2022/07/14 09:10:45;;;;;;;;;;;25.00;66.30;;;;;;5070957;28;19966;-68
2022/07/14 09:13:18;;;;;;;;;;;25.00;66.20;;;;;;5071273;28;19912;-63
2022/07/14 09:15:45;;;;;;;;;;;25.00;66.40;;;;;;5068879;28;19912;-66
2022/07/14 09:18:17;;;;;;;;;;;25.00;65.90;;;;;;5071129;28;19912;-67
2022/07/14 09:20:43;;;;;;;;;;;25.10;66.10;;;;;;5067881;28;20435;-66
2022/07/14 09:23:09;;;;;;;;;;;25.20;65.90;;;;;;5071551;28;19912;-66
2022/07/14 09:25:35;;;;;;;;;;;25.20;65.80;;;;;;5071703;28;19916;-67
2022/07/14 09:28:02;;;;;;;;;;;25.30;65.80;;;;;;5070900;28;19962;-64
2022/07/14 09:30:28;;;;;;;;;;;25.30;65.70;;;;;;5050543;28;20337;-64
2022/07/14 09:32:53;;;;;;;;;;;25.30;65.20;;;;;;5072750;28;19912;-66
2022/07/14 09:35:25;;;;;;;;;;;25.40;65.10;;;;;;5076979;28;19921;-66
2022/07/14 09:37:51;;;;;;;;;;;25.50;65.30;;;;;;5077517;28;19908;-65
2022/07/14 09:40:25;;;;;;;;;;;25.50;64.70;;;;;;5073791;28;19913;-66
2022/07/14 09:42:51;;;;;;;;;;;25.50;64.50;;;;;;5075495;28;19919;-67
2022/07/14 09:45:21;;;;;;;;;;;25.50;64.40;;;;;;5074980;28;19913;-67
2022/07/14 09:48:02;;;;;;;;;;;25.60;64.80;;;;;;5074251;28;20007;-67
2022/07/14 09:50:34;;;;;;;;;;;25.60;64.30;;;;;;5071294;28;20262;-66
2022/07/14 09:53:08;;;;;;;;;;;25.70;64.10;;;;;;5044467;28;19966;-68
2022/07/14 09:55:35;;;;;;;;;;;25.70;63.10;;;;;;5069907;28;19916;-65
2022/07/14 09:58:04;;;;;;;;;;;25.70;62.60;;;;;;5070733;28;19923;-67
2022/07/14 10:00:30;;;;;;;;;;;25.70;63.10;;;;;;5070842;28;19916;-67
2022/07/14 10:02:56;;;;;;;;;;;25.70;62.30;;;;;;5070937;28;19919;-65
2022/07/14 10:05:22;;;;;;;;;;;25.70;62.80;;;;;;5047046;28;20436;-67
2022/07/14 10:07:48;;;;;;;;;;;25.80;61.90;;;;;;5070633;28;20293;-67
2022/07/14 10:10:15;;;;;;;;;;;25.80;62.10;;;;;;5068058;28;19913;-67
2022/07/14 10:12:41;;;;;;;;;;;25.80;62.20;;;;;;5066242;28;19939;-68
2022/07/14 10:15:08;;;;;;;;;;;25.90;62.20;;;;;;5046764;28;20427;-66
2022/07/14 10:17:35;;;;;;;;;;;25.90;61.80;;;;;;5070029;28;20005;-66
2022/07/14 10:20:01;;;;;;;;;;;25.90;61.50;;;;;;5076168;28;19923;-65
2022/07/14 10:22:27;;;;;;;;;;;26.00;62.10;;;;;;5069863;28;19917;-67
2022/07/14 10:24:53;;;;;;;;;;;26.00;62.10;;;;;;5069321;28;19984;-67
2022/07/14 10:27:19;;;;;;;;;;;26.10;61.70;;;;;;5070259;28;19913;-67
2022/07/14 10:29:49;;;;;;;;;;;26.10;61.10;;;;;;5070126;28;19921;-67
2022/07/14 10:32:30;;;;;;;;;;;26.20;60.40;;;;;;5070554;28;19920;-68
2022/07/14 10:35:02;;;;;;;;;;;26.20;59.90;;;;;;5071873;28;19947;-67
2022/07/14 10:37:47;;;;;;;;;;;26.20;59.70;;;;;;5067905;28;19916;-67
2022/07/14 10:40:16;;;;;;;;;;;26.30;59.40;;;;;;5069739;28;19923;-67
2022/07/14 10:42:52;;;;;;;;;;;26.30;59.50;;;;;;5068324;28;19916;-57
2022/07/14 10:45:17;;;;;;;;;;;26.40;58.70;;;;;;5069146;28;19917;-58
2022/07/14 10:47:51;;;;;;;;;;;26.50;59.20;;;;;;5069311;28;19958;-57
2022/07/14 10:50:24;;;;;;;;;;;26.60;59.50;;;;;;5068754;28;19920;-58
2022/07/14 10:52:52;;;;;;;;;;;26.60;58.10;;;;;;5066821;28;19923;-58
2022/07/14 10:55:21;;;;;;;;;;;26.70;58.10;;;;;;5066272;28;19912;-58
2022/07/14 10:58:07;;;;;;;;;;;26.80;58.00;;;;;;5069029;28;19913;-58
2022/07/14 11:00:44;;;;;;;;;;;26.80;57.40;;;;;;5057606;28;19913;-58
2022/07/14 11:03:19;;;;;;;;;;;26.80;58.00;;;;;;5067532;28;19913;-58
2022/07/14 11:06:09;;;;;;;;;;;26.90;57.20;;;;;;5068011;28;19916;-60
2022/07/14 11:08:38;;;;;;;;;;;26.90;57.10;;;;;;5067631;28;19981;-57
2022/07/14 11:11:08;;;;;;;;;;;26.90;57.10;;;;;;5068344;28;19916;-60
2022/07/14 11:13:35;;;;;;;;;;;27.00;56.60;;;;;;5068403;28;19924;-60
2022/07/14 11:16:03;;;;;;;;;;;27.00;57.40;;;;;;5069425;28;20021;-59
2022/07/14 11:18:33;;;;;;;;;;;27.10;57.30;;;;;;5068210;28;19973;-59
2022/07/14 11:21:04;;;;;;;;;;;27.10;56.70;;;;;;5068742;28;19912;-58
2022/07/14 11:23:32;;;;;;;;;;;27.10;56.80;;;;;;5067880;28;20007;-58
2022/07/14 11:25:59;;;;;;;;;;;27.10;56.50;;;;;;5068742;28;19951;-58
2022/07/14 11:28:31;;;;;;;;;;;27.20;56.20;;;;;;5067255;28;19964;-59
2022/07/14 11:31:15;;;;;;;;;;;27.30;56.50;;;;;;5068689;28;19916;-59
2022/07/14 11:36:33;;;;;;;;;;;27.40;53.80;;;;;;5067845;28;19935;-59
2022/07/14 11:39:27;;;;;;;;;;;27.30;53.50;;;;;;5068589;28;20376;-58
2022/07/14 11:42:04;;;;;;;;;;;27.40;53.90;;;;;;5051216;28;20048;-59
2022/07/14 11:44:35;;;;;;;;;;;27.40;52.90;;;;;;5066863;28;19920;-59
2022/07/14 11:47:05;;;;;;;;;;;27.40;53.20;;;;;;5068088;28;19912;-58
2022/07/14 11:49:34;;;;;;;;;;;27.40;52.70;;;;;;5068452;28;20296;-58
2022/07/14 11:52:01;;;;;;;;;;;27.50;53.20;;;;;;5067946;28;19919;-58
2022/07/14 11:54:27;;;;;;;;;;;27.50;53.30;;;;;;5068813;28;19919;-60
2022/07/14 11:57:06;;;;;;;;;;;27.50;53.60;;;;;;5069372;28;20148;-59
2022/07/14 11:59:36;;;;;;;;;;;27.50;53.10;;;;;;5068882;28;19921;-57
2022/07/14 12:02:14;;;;;;;;;;;27.60;51.40;;;;;;5073658;28;20412;-59
2022/07/14 12:04:52;;;;;;;;;;;27.60;52.50;;;;;;5065076;28;19942;-59
2022/07/14 12:07:19;;;;;;;;;;;27.60;52.40;;;;;;5067861;28;19913;-58
2022/07/14 12:09:45;;;;;;;;;;;27.60;51.30;;;;;;5068715;28;19920;-58
2022/07/14 12:12:10;;;;;;;;;;;27.70;50.70;;;;;;5067720;28;19972;-59
2022/07/14 12:14:46;;;;;;;;;;;27.60;50.90;;;;;;5068289;28;19995;-58
2022/07/14 12:17:11;;;;;;;;;;;27.60;50.50;;;;;;5067031;28;20400;-59
2022/07/14 12:19:37;;;;;;;;;;;27.70;50.90;;;;;;5067817;28;19965;-59
2022/07/14 12:22:04;;;;;;;;;;;27.70;49.30;;;;;;5067361;28;19924;-60
2022/07/14 12:24:30;;;;;;;;;;;27.80;49.20;;;;;;5068538;28;19913;-59
2022/07/14 12:26:59;;;;;;;;;;;27.80;49.50;;;;;;5067535;28;19913;-59
2022/07/14 12:29:26;;;;;;;;;;;27.80;49.00;;;;;;5066044;28;20007;-59
2022/07/14 12:31:51;;;;;;;;;;;27.80;48.80;;;;;;5067309;28;19912;-58
2022/07/14 12:34:17;;;;;;;;;;;27.80;48.70;;;;;;5067664;28;19913;-58
2022/07/14 12:36:43;;;;;;;;;;;27.80;48.60;;;;;;5068206;28;20381;-59
2022/07/14 12:39:09;;;;;;;;;;;27.90;48.20;;;;;;5066234;28;20300;-59
2022/07/14 12:41:35;;;;;;;;;;;27.90;48.40;;;;;;5068223;28;20293;-59
2022/07/14 12:44:05;;;;;;;;;;;27.90;48.00;;;;;;5067570;28;19913;-59
2022/07/14 12:46:30;;;;;;;;;;;28.00;48.60;;;;;;5067125;28;20424;-58
2022/07/14 12:48:57;;;;;;;;;;;28.00;48.80;;;;;;5067825;28;20011;-59
2022/07/14 12:51:29;;;;;;;;;;;28.10;48.60;;;;;;5067181;28;19935;-59
2022/07/14 12:53:59;;;;;;;;;;;28.20;46.90;;;;;;5067184;28;19917;-58
2022/07/14 12:56:25;;;;;;;;;;;28.20;47.20;;;;;;5067803;28;19926;-58
2022/07/14 12:58:50;;;;;;;;;;;28.20;47.70;;;;;;5068746;28;19951;-57
2022/07/14 13:01:16;;;;;;;;;;;28.20;47.10;;;;;;5074991;28;20013;-57
2022/07/14 13:03:51;;;;;;;;;;;28.20;48.10;;;;;;5073554;28;19908;-57
2022/07/14 13:06:17;;;;;;;;;;;28.30;47.50;;;;;;5074951;28;19913;-58
2022/07/14 13:08:42;;;;;;;;;;;28.30;46.40;;;;;;5057547;28;20354;-59
2022/07/14 13:11:09;;;;;;;;;;;28.30;46.20;;;;;;5074125;28;20387;-58
2022/07/14 13:13:37;;;;;;;;;;;28.30;45.90;;;;;;5073995;28;19912;-58
2022/07/14 13:16:22;;;;;;;;;;;28.30;46.80;;;;;;5071193;28;19966;-58
2022/07/14 13:19:06;;;;;;;;;;;28.40;47.20;;;;;;5065390;28;19967;-58
2022/07/14 13:21:48;;;;;;;;;;;28.40;46.90;;;;;;5067549;28;19913;-58
2022/07/14 13:24:14;;;;;;;;;;;28.50;46.80;;;;;;5067151;28;20330;-58
2022/07/14 13:26:41;;;;;;;;;;;28.50;46.40;;;;;;5068827;28;19908;-59
2022/07/14 13:29:07;;;;;;;;;;;28.50;46.30;;;;;;5073488;28;20037;-57
2022/07/14 13:31:33;;;;;;;;;;;28.50;46.90;;;;;;5073554;28;20093;-56
2022/07/14 13:33:58;;;;;;;;;;;28.60;46.70;;;;;;5072655;28;20024;-57
2022/07/14 13:36:25;;;;;;;;;;;28.50;47.10;;;;;;5070975;28;20003;-58
2022/07/14 13:38:50;;;;;;;;;;;28.60;47.40;;;;;;5070212;28;19928;-57
2022/07/14 13:41:16;;;;;;;;;;;28.60;47.30;;;;;;5070681;28;19912;-58
2022/07/14 13:43:42;;;;;;;;;;;28.70;46.50;;;;;;5071040;28;19912;-58
2022/07/14 13:46:09;;;;;;;;;;;28.80;46.50;;;;;;5070152;28;20301;-58
2022/07/14 13:48:34;;;;;;;;;;;28.70;47.00;;;;;;5070157;28;19926;-58
2022/07/14 13:53:44;;;;;;;;;;;28.70;47.30;;;;;;5067774;28;20281;-57
2022/07/14 13:56:10;;;;;;;;;;;28.80;47.60;;;;;;5069874;28;20369;-58
2022/07/14 13:58:35;;;;;;;;;;;28.80;47.70;;;;;;5070642;28;20113;-58
2022/07/14 14:01:01;;;;;;;;;;;28.80;47.70;;;;;;5069848;28;20234;-57
2022/07/14 14:03:27;;;;;;;;;;;28.80;47.60;;;;;;5070180;28;19917;-57
2022/07/14 14:05:53;;;;;;;;;;;28.80;47.30;;;;;;5073120;28;19923;-57
2022/07/14 14:08:19;;;;;;;;;;;28.90;47.70;;;;;;5070711;28;19921;-57
2022/07/14 14:10:45;;;;;;;;;;;28.90;47.30;;;;;;5070238;28;19916;-58
2022/07/14 14:13:10;;;;;;;;;;;29.00;47.70;;;;;;5070276;28;19952;-57
2022/07/14 14:15:36;;;;;;;;;;;29.00;47.40;;;;;;5068849;28;20007;-58
2022/07/14 14:18:01;;;;;;;;;;;29.10;46.70;;;;;;5070244;28;19912;-58
2022/07/14 14:20:27;;;;;;;;;;;29.10;46.40;;;;;;5069034;28;19913;-57
2022/07/14 14:22:52;;;;;;;;;;;29.10;46.90;;;;;;5069711;28;20432;-57
2022/07/14 14:25:18;;;;;;;;;;;29.10;46.90;;;;;;5068058;28;19912;-58
2022/07/14 14:27:43;;;;;;;;;;;29.00;47.60;;;;;;5069628;28;19923;-58
2022/07/14 14:30:09;;;;;;;;;;;29.20;47.80;;;;;;5069481;28;19923;-55